Terminal Aerodrome Forecast
Issued by NWS

Home | Current Version | Previous Version | Text Only | Print | Product List | Glossary On
Versions: 1 2 3 4 5 6 7 8 9 10 11 12 13 14
000
FTUS43 KIWX 300500
TAFSBN
TAF
KSBN 300528Z 3006/3106 33015G25KT 6SM -SHSN BR SCT025 OVC035
      TEMPO 3006/3009 3SM -SHSN OVC025
     FM300900 32015G22KT 3SM -SHSN OVC025
     FM301200 34012KT P6SM OVC030
     FM302300 27006KT P6SM SCT030=

USA.gov is the U.S. government's official web portal to all federal, state and local government web resources and services.